Startpagina
METAR-TAF:

METAR-TAF

Vliegvelden :

Reykjavíkurflugvöllur

Reykjavik, IJsland

breedte: 64-08N, lengte: 021-54W, hoogte: 54 m

Actueel weer

Dit bericht is 51 minuten geleden gemaakt, om 10:00 UTC
Wind 10 kt uit het noordoosten met uitschieters tot 20 kt, variërend tussen het noorden en het oosten
Temperatuur 9°C
Vochtigheid 57%
Druk 994 hPa
Zicht 10 km of meer
Weinig wolken op 3000 ft

METAR: BIRK 191000Z 04010G20KT 350V100 9999 FEW030 09/01 Q0994

Tijdstip: 10:51 (10:51 UTC)

Verwachting

Dit bericht is 2 uur en het 55 minuten geleden gemaakt, om 07:56 UTC
Verwachting geldig van 19 om 09 UTC tot 20 om 09 UTC
Wind 15 kt uit het noordnoordoosten met uitschieters tot 25 kt
Zicht 10 km of meer
Weinig wolken op 2500 ft
Verspreide wolken op 4500 ft

TAF: BIRK 190756Z 1909/2009 03015G25KT 9999 FEW025 SCT045 TX10/1916Z TN03/2006Z

Waarnemingen en weersverwachtingen van meer dan 4000 vliegvelden (METAR en TAF).

De beschikbare stations zijn de gele en rode punten op de kaart.

Ga met uw muis naar het station om de naam te zien.

Klik dan om waarnemingen en weersverwachtingen te zien.

kaart wijzigen: klik op de groene knoppen met een zwart kruis om in te zoomen, op de groene knop met een streepje om uit te zoomen of op de groene pijlen voor aangrenzende kaarten.


METAR-TAF: